Time,TemperatureF,DewpointF,PressureIn,WindDirection,WindDirectionDegrees,WindSpeedMPH,WindSpeedGustMPH,Humidity,HourlyPrecipIn,Conditions,Clouds,dailyrainin,SoftwareType,DateUTC
2013-01-09 00:02:00,47.0,46.0,30.17,East,84,2.0,6.0,97,0.00,,,0.21,,2013-01-09 06:02:00,
2013-01-09 00:12:00,47.0,46.0,30.17,East,84,2.0,6.0,97,0.00,,,0.21,,2013-01-09 06:12:00,
2013-01-09 00:22:00,47.0,46.0,30.19,ENE,69,2.0,5.0,97,0.01,,,0.22,,2013-01-09 06:22:00,
2013-01-09 00:32:00,47.0,46.0,30.18,NNE,25,2.0,6.0,97,0.01,,,0.22,,2013-01-09 06:32:00,
2013-01-09 00:42:00,47.0,46.0,30.18,NNE,25,2.0,6.0,97,0.01,,,0.22,,2013-01-09 06:42:00,
2013-01-09 00:52:00,47.0,46.0,30.18,ENE,68,1.0,5.0,97,0.01,,,0.22,,2013-01-09 06:52:00,
2013-01-09 01:02:00,47.0,46.0,30.17,NNE,28,1.0,4.0,97,0.01,,,0.22,,2013-01-09 07:02:00,
2013-01-09 01:12:00,47.0,46.0,30.17,NNE,28,1.0,4.0,97,0.01,,,0.22,,2013-01-09 07:12:00,
2013-01-09 01:22:00,47.0,46.0,30.18,NW,313,0.0,5.0,97,0.00,,,0.22,,2013-01-09 07:22:00,
2013-01-09 01:32:00,47.0,46.0,30.17,North,352,5.0,8.0,98,0.00,,,0.22,,2013-01-09 07:32:00,
2013-01-09 01:42:00,47.0,46.0,30.17,North,352,5.0,8.0,98,0.00,,,0.22,,2013-01-09 07:42:00,
2013-01-09 01:52:00,48.0,47.0,30.16,NNE,33,5.0,11.0,98,0.00,,,0.22,,2013-01-09 07:52:00,
2013-01-09 02:02:00,48.0,47.0,30.16,NNW,342,5.0,8.0,98,0.00,,,0.22,,2013-01-09 08:02:00,
2013-01-09 02:12:00,48.0,47.0,30.16,NNW,342,5.0,8.0,98,0.00,,,0.22,,2013-01-09 08:12:00,
2013-01-09 02:22:00,48.0,47.0,30.17,NNE,27,5.0,9.0,98,0.01,,,0.23,,2013-01-09 08:22:00,
2013-01-09 02:32:00,48.0,47.0,30.17,NNE,28,3.0,6.0,98,0.01,,,0.23,,2013-01-09 08:32:00,
2013-01-09 02:42:00,48.0,47.0,30.17,NNE,28,3.0,6.0,98,0.01,,,0.23,,2013-01-09 08:42:00,
2013-01-09 02:52:00,48.0,47.0,30.16,East,86,5.0,10.0,97,0.01,,,0.23,,2013-01-09 08:52:00,
2013-01-09 03:02:00,48.0,47.0,30.17,NNW,335,4.0,7.0,97,0.01,,,0.23,,2013-01-09 09:02:00,
2013-01-09 03:12:00,48.0,47.0,30.17,NNW,335,4.0,7.0,97,0.01,,,0.23,,2013-01-09 09:12:00,
2013-01-09 03:22:00,48.0,47.0,30.17,NNE,32,4.0,8.0,97,0.00,,,0.23,,2013-01-09 09:22:00,
2013-01-09 03:32:00,48.0,47.0,30.17,NE,35,3.0,8.0,97,0.00,,,0.23,,2013-01-09 09:32:00,
2013-01-09 03:42:00,48.0,47.0,30.17,NE,35,3.0,8.0,97,0.00,,,0.23,,2013-01-09 09:42:00,
2013-01-09 03:53:00,48.0,47.0,30.17,East,101,5.0,8.0,97,0.00,,,0.23,,2013-01-09 09:53:00,
2013-01-09 04:02:00,48.0,47.0,30.17,East,82,4.0,8.0,97,0.00,,,0.23,,2013-01-09 10:02:00,
2013-01-09 04:12:00,48.0,47.0,30.17,East,82,4.0,8.0,97,0.00,,,0.23,,2013-01-09 10:12:00,
2013-01-09 04:22:00,48.0,47.0,30.16,East,81,4.0,7.0,97,0.00,,,0.23,,2013-01-09 10:22:00,
2013-01-09 04:32:00,48.0,47.0,30.16,NNW,332,3.0,8.0,97,0.00,,,0.23,,2013-01-09 10:32:00,
2013-01-09 04:42:00,48.0,47.0,30.16,NNW,332,3.0,8.0,97,0.00,,,0.23,,2013-01-09 10:42:00,
2013-01-09 04:52:00,48.0,47.0,30.17,East,82,3.0,8.0,97,0.00,,,0.23,,2013-01-09 10:52:00,
2013-01-09 05:02:00,48.0,47.0,30.17,NE,39,2.0,5.0,97,0.00,,,0.23,,2013-01-09 11:02:00,
2013-01-09 05:12:00,48.0,47.0,30.17,NE,39,2.0,5.0,97,0.00,,,0.23,,2013-01-09 11:12:00,
2013-01-09 05:22:00,48.0,47.0,30.18,ENE,61,2.0,5.0,97,0.00,,,0.23,,2013-01-09 11:22:00,
2013-01-09 05:32:00,48.0,47.0,30.19,NE,55,2.0,5.0,97,0.00,,,0.23,,2013-01-09 11:32:00,
2013-01-09 05:42:00,48.0,47.0,30.19,NE,55,2.0,5.0,97,0.00,,,0.23,,2013-01-09 11:42:00,
2013-01-09 05:52:00,48.0,47.0,30.20,NNW,345,3.0,6.0,97,0.00,,,0.23,,2013-01-09 11:52:00,
2013-01-09 06:03:00,48.0,47.0,30.20,NNE,12,5.0,7.0,97,0.00,,,0.23,,2013-01-09 12:03:00,
2013-01-09 06:12:00,48.0,47.0,30.20,NNE,12,5.0,7.0,97,0.00,,,0.23,,2013-01-09 12:12:00,
2013-01-09 06:23:00,48.0,47.0,30.21,NE,40,2.0,6.0,97,0.00,,,0.23,,2013-01-09 12:23:00,
2013-01-09 06:33:00,48.0,47.0,30.21,ESE,115,4.0,7.0,97,0.00,,,0.23,,2013-01-09 12:33:00,
2013-01-09 06:43:00,48.0,47.0,30.21,ESE,115,4.0,7.0,97,0.00,,,0.23,,2013-01-09 12:43:00,
2013-01-09 06:52:00,49.0,48.0,30.22,NE,44,3.0,9.0,97,0.01,,,0.24,,2013-01-09 12:52:00,
2013-01-09 07:02:00,48.0,47.0,30.22,East,101,4.0,9.0,97,0.02,,,0.25,,2013-01-09 13:02:00,
2013-01-09 07:12:00,48.0,47.0,30.22,East,101,4.0,9.0,97,0.02,,,0.25,,2013-01-09 13:12:00,
2013-01-09 07:23:00,48.0,47.0,30.22,NE,42,3.0,10.0,97,0.02,,,0.25,,2013-01-09 13:23:00,
2013-01-09 07:33:00,48.0,47.0,30.22,NE,41,5.0,10.0,97,0.02,,,0.25,,2013-01-09 13:33:00,
2013-01-09 07:43:00,48.0,47.0,30.22,NE,41,5.0,10.0,97,0.02,,,0.25,,2013-01-09 13:43:00,
2013-01-09 07:52:00,49.0,48.0,30.22,NE,54,3.0,11.0,98,0.01,,,0.25,,2013-01-09 13:52:00,
2013-01-09 08:03:00,49.0,48.0,30.22,NNE,28,3.0,7.0,98,0.00,,,0.25,,2013-01-09 14:03:00,
2013-01-09 08:12:00,49.0,48.0,30.22,NNE,28,3.0,7.0,98,0.00,,,0.25,,2013-01-09 14:12:00,
2013-01-09 08:22:00,49.0,48.0,30.23,NE,47,5.0,8.0,98,0.00,,,0.25,,2013-01-09 14:22:00,
2013-01-09 08:33:00,49.0,48.0,30.23,ENE,76,4.0,11.0,98,0.01,,,0.26,,2013-01-09 14:33:00,
2013-01-09 08:43:00,49.0,48.0,30.23,ENE,76,4.0,11.0,98,0.01,,,0.26,,2013-01-09 14:43:00,
2013-01-09 08:53:00,49.0,48.0,30.23,NE,41,5.0,9.0,98,0.01,,,0.26,,2013-01-09 14:53:00,
2013-01-09 09:03:00,49.0,48.0,30.24,NNE,13,6.0,12.0,98,0.01,,,0.26,,2013-01-09 15:03:00,
2013-01-09 09:12:00,49.0,48.0,30.24,NNE,13,6.0,12.0,98,0.01,,,0.26,,2013-01-09 15:12:00,
2013-01-09 09:23:00,49.0,48.0,30.24,NNE,30,3.0,10.0,98,0.01,,,0.26,,2013-01-09 15:23:00,
2013-01-09 09:33:00,49.0,48.0,30.25,NE,46,4.0,11.0,98,0.00,,,0.26,,2013-01-09 15:33:00,
2013-01-09 09:42:00,49.0,48.0,30.25,NE,46,4.0,11.0,98,0.00,,,0.26,,2013-01-09 15:42:00,
2013-01-09 09:53:00,49.0,48.0,30.26,NE,43,6.0,9.0,97,0.00,,,0.26,,2013-01-09 15:53:00,
2013-01-09 10:03:00,49.0,48.0,30.26,NNE,25,4.0,7.0,97,0.00,,,0.26,,2013-01-09 16:03:00,
2013-01-09 10:12:00,49.0,48.0,30.26,NNE,25,4.0,7.0,97,0.00,,,0.26,,2013-01-09 16:12:00,
2013-01-09 10:23:00,49.0,48.0,30.27,NE,52,3.0,8.0,97,0.01,,,0.27,,2013-01-09 16:23:00,
2013-01-09 10:33:00,49.0,48.0,30.26,SE,124,5.0,11.0,97,0.03,,,0.28,,2013-01-09 16:33:00,
2013-01-09 10:43:00,49.0,48.0,30.26,SE,124,5.0,11.0,97,0.03,,,0.28,,2013-01-09 16:43:00,
2013-01-09 10:52:00,49.0,48.0,30.26,NE,47,8.0,14.0,97,0.05,,,0.31,,2013-01-09 16:52:00,
2013-01-09 11:02:00,49.0,48.0,30.25,East,86,6.0,13.0,97,0.07,,,0.34,,2013-01-09 17:02:00,
2013-01-09 11:12:00,49.0,48.0,30.25,East,86,6.0,13.0,97,0.07,,,0.34,,2013-01-09 17:12:00,
2013-01-09 11:23:00,50.0,49.0,30.24,NNE,33,5.0,10.0,97,0.11,,,0.38,,2013-01-09 17:23:00,
2013-01-09 11:32:00,50.0,49.0,30.24,NNE,18,7.0,12.0,97,0.13,,,0.42,,2013-01-09 17:32:00,
2013-01-09 11:43:00,50.0,49.0,30.24,NNE,18,7.0,12.0,97,0.13,,,0.42,,2013-01-09 17:43:00,
2013-01-09 11:53:00,50.0,49.0,30.24,ENE,69,5.0,12.0,97,0.15,,,0.46,,2013-01-09 17:53:00,
2013-01-09 12:03:00,50.0,49.0,30.22,ENE,67,3.0,10.0,97,0.15,,,0.49,,2013-01-09 18:03:00,
2013-01-09 12:12:00,50.0,49.0,30.22,ENE,67,3.0,10.0,97,0.15,,,0.49,,2013-01-09 18:12:00,
2013-01-09 12:23:00,50.0,49.0,30.21,NE,42,5.0,13.0,97,0.15,,,0.53,,2013-01-09 18:23:00,
2013-01-09 12:33:00,50.0,49.0,30.20,NNE,25,4.0,14.0,97,0.14,,,0.56,,2013-01-09 18:33:00,
2013-01-09 12:43:00,50.0,49.0,30.20,NNE,25,4.0,14.0,97,0.14,,,0.56,,2013-01-09 18:43:00,
2013-01-09 12:53:00,50.0,49.0,30.18,NNE,29,6.0,12.0,97,0.11,,,0.57,,2013-01-09 18:53:00,
2013-01-09 13:03:00,51.0,50.0,30.16,NE,49,6.0,13.0,97,0.09,,,0.59,,2013-01-09 19:03:00,
2013-01-09 13:12:00,51.0,50.0,30.16,NE,49,6.0,13.0,97,0.09,,,0.59,,2013-01-09 19:12:00,
2013-01-09 13:22:00,51.0,50.0,30.17,NE,37,6.0,13.0,97,0.07,,,0.60,,2013-01-09 19:22:00,
2013-01-09 13:33:00,51.0,50.0,30.16,NE,56,4.0,12.0,97,0.05,,,0.61,,2013-01-09 19:33:00,
2013-01-09 13:43:00,51.0,50.0,30.16,NE,56,4.0,12.0,97,0.05,,,0.61,,2013-01-09 19:43:00,
2013-01-09 13:52:00,51.0,50.0,30.15,NW,325,6.0,12.0,97,0.04,,,0.62,,2013-01-09 19:52:00,
2013-01-09 14:03:00,51.0,50.0,30.16,NNE,25,6.0,13.0,97,0.04,,,0.63,,2013-01-09 20:03:00,
2013-01-09 14:12:00,51.0,50.0,30.16,NNE,25,6.0,13.0,97,0.04,,,0.63,,2013-01-09 20:12:00,
2013-01-09 14:23:00,52.0,51.0,30.15,NE,54,6.0,12.0,97,0.04,,,0.64,,2013-01-09 20:23:00,
2013-01-09 14:33:00,52.0,51.0,30.15,East,84,4.0,8.0,97,0.04,,,0.65,,2013-01-09 20:33:00,
2013-01-09 14:42:00,52.0,51.0,30.15,East,84,4.0,8.0,97,0.04,,,0.65,,2013-01-09 20:42:00,
2013-01-09 14:52:00,52.0,51.0,30.15,East,84,4.0,8.0,97,0.04,,,0.65,,2013-01-09 20:52:00,
2013-01-09 15:03:00,52.0,51.0,30.14,NNE,33,5.0,13.0,97,0.04,,,0.67,,2013-01-09 21:03:00,
2013-01-09 15:12:00,52.0,51.0,30.14,NNE,33,5.0,13.0,97,0.04,,,0.67,,2013-01-09 21:12:00,
2013-01-09 15:23:00,52.0,51.0,30.13,NE,53,6.0,14.0,97,0.04,,,0.68,,2013-01-09 21:23:00,
2013-01-09 15:33:00,53.0,52.0,30.12,NE,49,5.0,12.0,97,0.03,,,0.56,,2013-01-09 21:33:00,
2013-01-09 15:43:00,53.0,52.0,30.12,NE,49,5.0,12.0,97,0.03,,,0.56,,2013-01-09 21:43:00,
2013-01-09 15:52:00,53.0,52.0,30.12,NE,47,10.0,15.0,97,0.02,,,0.56,,2013-01-09 21:52:00,
2013-01-09 16:03:00,53.0,52.0,30.12,ENE,58,5.0,16.0,96,0.02,,,0.57,,2013-01-09 22:03:00,
2013-01-09 16:12:00,53.0,52.0,30.12,ENE,58,5.0,16.0,96,0.02,,,0.57,,2013-01-09 22:12:00,
2013-01-09 16:23:00,53.0,52.0,30.13,NNE,25,6.0,11.0,96,0.01,,,0.57,,2013-01-09 22:23:00,
2013-01-09 16:33:00,53.0,52.0,30.14,East,94,3.0,10.0,96,0.01,,,0.56,,2013-01-09 22:33:00,
2013-01-09 16:43:00,53.0,52.0,30.14,East,94,3.0,10.0,96,0.01,,,0.56,,2013-01-09 22:43:00,
2013-01-09 16:52:00,53.0,52.0,30.14,NE,35,3.0,9.0,96,0.01,,,0.56,,2013-01-09 22:52:00,
2013-01-09 17:02:00,53.0,52.0,30.15,ENE,60,6.0,11.0,96,0.00,,,0.56,,2013-01-09 23:02:00,
2013-01-09 17:12:00,53.0,52.0,30.15,ENE,60,6.0,11.0,96,0.00,,,0.56,,2013-01-09 23:12:00,
2013-01-09 17:22:00,53.0,52.0,30.15,ENE,68,3.0,8.0,96,0.00,,,0.56,,2013-01-09 23:22:00,
2013-01-09 17:33:00,53.0,52.0,30.14,East,101,3.0,12.0,96,0.04,,,0.56,,2013-01-09 23:33:00,
2013-01-09 17:43:00,53.0,52.0,30.14,East,101,3.0,12.0,96,0.04,,,0.56,,2013-01-09 23:43:00,
2013-01-09 17:52:00,53.0,52.0,30.14,NE,53,5.0,14.0,96,0.05,,,0.56,,2013-01-09 23:52:00,
2013-01-09 18:03:00,53.0,52.0,30.13,ESE,113,6.0,11.0,97,0.07,,,0.59,,2013-01-10 00:03:00,
2013-01-09 18:12:00,53.0,52.0,30.13,ESE,113,6.0,11.0,97,0.07,,,0.59,,2013-01-10 00:12:00,
2013-01-09 18:22:00,53.0,52.0,30.13,NNE,33,5.0,10.0,97,0.08,,,0.60,,2013-01-10 00:22:00,
2013-01-09 18:32:00,53.0,52.0,30.13,ENE,73,5.0,14.0,97,0.06,,,0.62,,2013-01-10 00:32:00,
2013-01-09 18:42:00,53.0,52.0,30.13,ENE,73,5.0,14.0,97,0.06,,,0.62,,2013-01-10 00:42:00,
2013-01-09 18:52:00,53.0,52.0,30.13,ESE,108,5.0,11.0,97,0.07,,,0.64,,2013-01-10 00:52:00,
2013-01-09 19:02:00,53.0,52.0,30.12,East,83,6.0,11.0,97,0.06,,,0.65,,2013-01-10 01:02:00,
2013-01-09 19:12:00,53.0,52.0,30.12,East,83,6.0,11.0,97,0.06,,,0.65,,2013-01-10 01:12:00,
2013-01-09 19:22:00,53.0,52.0,30.11,ESE,102,6.0,14.0,97,0.06,,,0.66,,2013-01-10 01:22:00,
2013-01-09 19:33:00,53.0,52.0,30.10,East,93,7.0,13.0,97,0.04,,,0.64,,2013-01-10 01:33:00,
2013-01-09 19:42:00,53.0,52.0,30.10,East,93,7.0,13.0,97,0.04,,,0.64,,2013-01-10 01:42:00,
2013-01-09 19:52:00,53.0,52.0,30.07,ENE,70,8.0,18.0,97,0.03,,,0.65,,2013-01-10 01:52:00,
2013-01-09 20:03:00,53.0,52.0,30.06,NE,34,12.0,20.0,97,0.02,,,0.65,,2013-01-10 02:03:00,
2013-01-09 20:12:00,53.0,52.0,30.06,NE,34,12.0,20.0,97,0.02,,,0.65,,2013-01-10 02:12:00,
2013-01-09 20:22:00,53.0,52.0,30.06,NE,34,12.0,20.0,97,0.02,,,0.65,,2013-01-10 02:22:00,
2013-01-09 20:32:00,53.0,52.0,30.09,ENE,68,9.0,17.0,97,0.00,,,0.64,,2013-01-10 02:32:00,
2013-01-09 20:42:00,53.0,52.0,30.09,ENE,68,9.0,17.0,97,0.00,,,0.64,,2013-01-10 02:42:00,
2013-01-09 20:52:00,53.0,52.0,30.09,ENE,68,9.0,17.0,97,0.00,,,0.64,,2013-01-10 02:52:00,
2013-01-09 21:03:00,54.0,53.0,30.10,ESE,104,6.0,12.0,96,0.00,,,0.64,,2013-01-10 03:03:00,
2013-01-09 21:12:00,54.0,53.0,30.10,ESE,104,6.0,12.0,96,0.00,,,0.64,,2013-01-10 03:12:00,
2013-01-09 21:22:00,54.0,53.0,30.10,NE,51,4.0,12.0,96,0.00,,,0.64,,2013-01-10 03:22:00,
2013-01-09 21:33:00,54.0,53.0,30.08,East,98,7.0,13.0,96,0.00,,,0.63,,2013-01-10 03:33:00,
2013-01-09 21:42:00,54.0,53.0,30.08,East,98,7.0,13.0,96,0.00,,,0.63,,2013-01-10 03:42:00,
2013-01-09 21:52:00,54.0,53.0,30.09,NNE,12,5.0,13.0,96,0.00,,,0.63,,2013-01-10 03:52:00,
2013-01-09 22:02:00,54.0,53.0,30.10,East,94,3.0,10.0,96,0.00,,,0.63,,2013-01-10 04:02:00,
2013-01-09 22:12:00,54.0,53.0,30.10,East,94,3.0,10.0,96,0.00,,,0.63,,2013-01-10 04:12:00,
2013-01-09 22:22:00,54.0,53.0,30.10,East,88,4.0,7.0,96,0.00,,,0.63,,2013-01-10 04:22:00,
2013-01-09 22:32:00,54.0,53.0,30.11,ESE,110,3.0,10.0,97,0.00,,,0.63,,2013-01-10 04:32:00,
2013-01-09 22:42:00,54.0,53.0,30.11,ESE,110,3.0,10.0,97,0.00,,,0.63,,2013-01-10 04:42:00,
2013-01-09 22:52:00,54.0,53.0,30.11,NE,39,6.0,11.0,97,0.00,,,0.63,,2013-01-10 04:52:00,
2013-01-09 23:03:00,54.0,53.0,30.11,NE,39,6.0,11.0,97,0.00,,,0.63,,2013-01-10 05:03:00,
2013-01-09 23:12:00,54.0,53.0,30.11,NE,39,6.0,11.0,97,0.00,,,0.63,,2013-01-10 05:12:00,
2013-01-09 23:22:00,54.0,53.0,30.09,ENE,63,5.0,10.0,97,0.01,,,0.64,,2013-01-10 05:22:00,
2013-01-09 23:33:00,54.0,53.0,30.09,East,98,5.0,13.0,97,0.01,,,0.64,,2013-01-10 05:33:00,
2013-01-09 23:42:00,54.0,53.0,30.09,East,98,5.0,13.0,97,0.01,,,0.64,,2013-01-10 05:42:00,
2013-01-09 23:52:00,54.0,53.0,30.09,East,82,5.0,12.0,97,0.04,,,0.67,,2013-01-10 05:52:00,